sensor_id;sensor_type;location;lat;lon;timestamp;temperature;humidity
68977;SHT31;56029;52.568;13.588;2024-03-22T00:00:33;7.33;97.43
68977;SHT31;56029;52.568;13.588;2024-03-22T00:03:18;7.34;97.48
68977;SHT31;56029;52.568;13.588;2024-03-22T00:05:44;7.34;97.42
68977;SHT31;56029;52.568;13.588;2024-03-22T00:08:09;7.40;97.40
68977;SHT31;56029;52.568;13.588;2024-03-22T00:10:35;7.40;97.49
68977;SHT31;56029;52.568;13.588;2024-03-22T00:13:00;7.43;97.59
68977;SHT31;56029;52.568;13.588;2024-03-22T00:15:26;7.46;97.41
68977;SHT31;56029;52.568;13.588;2024-03-22T00:17:51;7.50;97.38
68977;SHT31;56029;52.568;13.588;2024-03-22T00:20:17;7.52;97.24
68977;SHT31;56029;52.568;13.588;2024-03-22T00:22:43;7.53;97.23
68977;SHT31;56029;52.568;13.588;2024-03-22T00:25:09;7.56;97.30
68977;SHT31;56029;52.568;13.588;2024-03-22T00:27:34;7.59;97.14
68977;SHT31;56029;52.568;13.588;2024-03-22T00:30:00;7.57;97.11
68977;SHT31;56029;52.568;13.588;2024-03-22T00:32:25;7.63;96.81
68977;SHT31;56029;52.568;13.588;2024-03-22T00:34:51;7.61;97.01
68977;SHT31;56029;52.568;13.588;2024-03-22T00:37:16;7.63;96.91
68977;SHT31;56029;52.568;13.588;2024-03-22T00:39:42;7.63;97.16
68977;SHT31;56029;52.568;13.588;2024-03-22T00:42:07;7.61;97.20
68977;SHT31;56029;52.568;13.588;2024-03-22T00:44:33;7.59;97.23
68977;SHT31;56029;52.568;13.588;2024-03-22T00:46:59;7.63;97.11
68977;SHT31;56029;52.568;13.588;2024-03-22T00:49:24;7.63;97.11
68977;SHT31;56029;52.568;13.588;2024-03-22T00:51:50;7.61;97.04
68977;SHT31;56029;52.568;13.588;2024-03-22T00:54:16;7.66;97.07
68977;SHT31;56029;52.568;13.588;2024-03-22T00:56:41;7.67;96.97
68977;SHT31;56029;52.568;13.588;2024-03-22T00:59:07;7.67;96.85
68977;SHT31;56029;52.568;13.588;2024-03-22T01:01:32;7.71;96.91
68977;SHT31;56029;52.568;13.588;2024-03-22T01:03:58;7.70;96.67
68977;SHT31;56029;52.568;13.588;2024-03-22T01:06:23;7.67;96.68
68977;SHT31;56029;52.568;13.588;2024-03-22T01:08:49;7.73;96.73
68977;SHT31;56029;52.568;13.588;2024-03-22T01:11:15;7.71;96.76
68977;SHT31;56029;52.568;13.588;2024-03-22T01:13:41;7.71;96.80
68977;SHT31;56029;52.568;13.588;2024-03-22T01:16:06;7.71;96.95
68977;SHT31;56029;52.568;13.588;2024-03-22T01:18:32;7.70;97.08
68977;SHT31;56029;52.568;13.588;2024-03-22T01:20:57;7.70;97.38
68977;SHT31;56029;52.568;13.588;2024-03-22T01:23:23;7.71;97.51
68977;SHT31;56029;52.568;13.588;2024-03-22T01:25:48;7.73;97.38
68977;SHT31;56029;52.568;13.588;2024-03-22T01:28:14;7.71;97.41
68977;SHT31;56029;52.568;13.588;2024-03-22T01:30:40;7.71;97.35
68977;SHT31;56029;52.568;13.588;2024-03-22T01:33:05;7.69;97.50
68977;SHT31;56029;52.568;13.588;2024-03-22T01:35:31;7.67;97.73
68977;SHT31;56029;52.568;13.588;2024-03-22T01:37:57;7.66;97.63
68977;SHT31;56029;52.568;13.588;2024-03-22T01:40:22;7.67;97.65
68977;SHT31;56029;52.568;13.588;2024-03-22T01:42:48;7.63;97.78
68977;SHT31;56029;52.568;13.588;2024-03-22T01:45:17;7.61;97.70
68977;SHT31;56029;52.568;13.588;2024-03-22T01:47:43;7.59;97.82
68977;SHT31;56029;52.568;13.588;2024-03-22T01:50:09;7.59;97.89
68977;SHT31;56029;52.568;13.588;2024-03-22T01:52:35;7.57;98.09
68977;SHT31;56029;52.568;13.588;2024-03-22T01:55:01;7.59;98.14
68977;SHT31;56029;52.568;13.588;2024-03-22T01:57:27;7.59;98.24
68977;SHT31;56029;52.568;13.588;2024-03-22T01:59:53;7.56;98.44
68977;SHT31;56029;52.568;13.588;2024-03-22T02:02:21;7.50;98.58
68977;SHT31;56029;52.568;13.588;2024-03-22T02:04:50;7.53;98.64
68977;SHT31;56029;52.568;13.588;2024-03-22T02:07:16;7.49;98.75
68977;SHT31;56029;52.568;13.588;2024-03-22T02:09:41;7.47;99.04
68977;SHT31;56029;52.568;13.588;2024-03-22T02:12:08;7.46;99.06
68977;SHT31;56029;52.568;13.588;2024-03-22T02:14:34;7.49;99.16
68977;SHT31;56029;52.568;13.588;2024-03-22T02:16:59;7.49;99.28
68977;SHT31;56029;52.568;13.588;2024-03-22T02:19:25;7.49;99.37
68977;SHT31;56029;52.568;13.588;2024-03-22T02:21:51;7.46;99.63
68977;SHT31;56029;52.568;13.588;2024-03-22T02:24:16;7.46;99.96
68977;SHT31;56029;52.568;13.588;2024-03-22T02:26:42;7.47;99.90
68977;SHT31;56029;52.568;13.588;2024-03-22T02:29:07;7.46;99.99
68977;SHT31;56029;52.568;13.588;2024-03-22T02:31:33;7.47;99.98
68977;SHT31;56029;52.568;13.588;2024-03-22T02:33:58;7.47;99.99
68977;SHT31;56029;52.568;13.588;2024-03-22T02:36:25;7.50;99.99
68977;SHT31;56029;52.568;13.588;2024-03-22T02:38:51;7.49;99.99
68977;SHT31;56029;52.568;13.588;2024-03-22T02:41:16;7.47;99.99
68977;SHT31;56029;52.568;13.588;2024-03-22T02:43:42;7.53;99.99
68977;SHT31;56029;52.568;13.588;2024-03-22T02:46:08;7.54;99.99
68977;SHT31;56029;52.568;13.588;2024-03-22T02:48:33;7.56;99.99
68977;SHT31;56029;52.568;13.588;2024-03-22T02:50:59;7.54;99.99
68977;SHT31;56029;52.568;13.588;2024-03-22T02:53:24;7.57;99.99
68977;SHT31;56029;52.568;13.588;2024-03-22T02:55:50;7.54;99.99
68977;SHT31;56029;52.568;13.588;2024-03-22T02:58:17;7.56;99.99
68977;SHT31;56029;52.568;13.588;2024-03-22T03:00:42;7.56;99.99
68977;SHT31;56029;52.568;13.588;2024-03-22T03:03:08;7.57;99.99
68977;SHT31;56029;52.568;13.588;2024-03-22T03:05:34;7.56;99.99
68977;SHT31;56029;52.568;13.588;2024-03-22T03:07:59;7.57;99.99
68977;SHT31;56029;52.568;13.588;2024-03-22T03:10:25;7.59;99.99
68977;SHT31;56029;52.568;13.588;2024-03-22T03:12:51;7.60;99.97
68977;SHT31;56029;52.568;13.588;2024-03-22T03:15:17;7.59;99.99
68977;SHT31;56029;52.568;13.588;2024-03-22T03:17:43;7.57;99.99
68977;SHT31;56029;52.568;13.588;2024-03-22T03:20:09;7.54;99.99
68977;SHT31;56029;52.568;13.588;2024-03-22T03:22:34;7.53;99.99
68977;SHT31;56029;52.568;13.588;2024-03-22T03:25:00;7.50;99.99
68977;SHT31;56029;52.568;13.588;2024-03-22T03:27:26;7.44;99.99
68977;SHT31;56029;52.568;13.588;2024-03-22T03:29:52;7.44;99.99
68977;SHT31;56029;52.568;13.588;2024-03-22T03:32:17;7.44;99.99
68977;SHT31;56029;52.568;13.588;2024-03-22T03:34:43;7.44;99.99
68977;SHT31;56029;52.568;13.588;2024-03-22T03:37:08;7.43;99.99
68977;SHT31;56029;52.568;13.588;2024-03-22T03:39:34;7.43;99.99
68977;SHT31;56029;52.568;13.588;2024-03-22T03:41:59;7.42;99.99
68977;SHT31;56029;52.568;13.588;2024-03-22T03:44:25;7.39;99.99
68977;SHT31;56029;52.568;13.588;2024-03-22T03:46:50;7.39;99.99
68977;SHT31;56029;52.568;13.588;2024-03-22T03:49:16;7.39;99.99
68977;SHT31;56029;52.568;13.588;2024-03-22T03:51:42;7.39;99.99
68977;SHT31;56029;52.568;13.588;2024-03-22T03:54:07;7.37;99.99
68977;SHT31;56029;52.568;13.588;2024-03-22T03:56:33;7.37;99.99
68977;SHT31;56029;52.568;13.588;2024-03-22T03:58:59;7.36;99.99
68977;SHT31;56029;52.568;13.588;2024-03-22T04:01:24;7.33;99.99
68977;SHT31;56029;52.568;13.588;2024-03-22T04:03:50;7.34;99.80
68977;SHT31;56029;52.568;13.588;2024-03-22T04:06:15;7.37;99.65
68977;SHT31;56029;52.568;13.588;2024-03-22T04:08:42;7.39;99.49
68977;SHT31;56029;52.568;13.588;2024-03-22T04:11:07;7.43;99.44
68977;SHT31;56029;52.568;13.588;2024-03-22T04:13:33;7.47;99.11
68977;SHT31;56029;52.568;13.588;2024-03-22T04:15:59;7.52;98.84
68977;SHT31;56029;52.568;13.588;2024-03-22T04:18:25;7.52;98.47
68977;SHT31;56029;52.568;13.588;2024-03-22T04:20:54;7.52;98.62
68977;SHT31;56029;52.568;13.588;2024-03-22T04:23:21;7.50;98.76
68977;SHT31;56029;52.568;13.588;2024-03-22T04:26:00;7.47;98.85
68977;SHT31;56029;52.568;13.588;2024-03-22T04:28:27;7.44;98.77
68977;SHT31;56029;52.568;13.588;2024-03-22T04:31:07;7.47;98.76
68977;SHT31;56029;52.568;13.588;2024-03-22T04:33:32;7.43;98.88
68977;SHT31;56029;52.568;13.588;2024-03-22T04:35:59;7.42;98.85
68977;SHT31;56029;52.568;13.588;2024-03-22T04:38:25;7.44;98.94
68977;SHT31;56029;52.568;13.588;2024-03-22T04:40:51;7.49;98.87
68977;SHT31;56029;52.568;13.588;2024-03-22T04:43:17;7.44;98.90
68977;SHT31;56029;52.568;13.588;2024-03-22T04:45:44;7.50;98.75
68977;SHT31;56029;52.568;13.588;2024-03-22T04:48:12;7.49;98.91
68977;SHT31;56029;52.568;13.588;2024-03-22T04:50:37;7.50;99.00
68977;SHT31;56029;52.568;13.588;2024-03-22T04:53:03;7.52;98.79
68977;SHT31;56029;52.568;13.588;2024-03-22T04:55:28;7.49;98.75
68977;SHT31;56029;52.568;13.588;2024-03-22T04:57:54;7.52;98.66
68977;SHT31;56029;52.568;13.588;2024-03-22T05:00:20;7.52;98.66
68977;SHT31;56029;52.568;13.588;2024-03-22T05:02:45;7.53;98.60
68977;SHT31;56029;52.568;13.588;2024-03-22T05:05:12;7.53;98.35
68977;SHT31;56029;52.568;13.588;2024-03-22T05:07:37;7.50;98.37
68977;SHT31;56029;52.568;13.588;2024-03-22T05:10:03;7.56;98.00
68977;SHT31;56029;52.568;13.588;2024-03-22T05:12:29;7.53;98.19
68977;SHT31;56029;52.568;13.588;2024-03-22T05:14:55;7.53;97.82
68977;SHT31;56029;52.568;13.588;2024-03-22T05:17:21;7.54;97.76
68977;SHT31;56029;52.568;13.588;2024-03-22T05:19:46;7.57;97.75
68977;SHT31;56029;52.568;13.588;2024-03-22T05:22:12;7.56;97.69
68977;SHT31;56029;52.568;13.588;2024-03-22T05:24:37;7.57;97.61
68977;SHT31;56029;52.568;13.588;2024-03-22T05:27:03;7.52;97.54
68977;SHT31;56029;52.568;13.588;2024-03-22T05:29:29;7.54;97.37
68977;SHT31;56029;52.568;13.588;2024-03-22T05:31:55;7.57;97.52
68977;SHT31;56029;52.568;13.588;2024-03-22T05:34:20;7.57;97.40
68977;SHT31;56029;52.568;13.588;2024-03-22T05:36:46;7.57;97.48
68977;SHT31;56029;52.568;13.588;2024-03-22T05:39:12;7.63;97.40
68977;SHT31;56029;52.568;13.588;2024-03-22T05:41:38;7.64;97.07
68977;SHT31;56029;52.568;13.588;2024-03-22T05:44:04;7.64;97.08
68977;SHT31;56029;52.568;13.588;2024-03-22T05:46:30;7.70;97.24
68977;SHT31;56029;52.568;13.588;2024-03-22T05:48:57;7.75;97.13
68977;SHT31;56029;52.568;13.588;2024-03-22T05:51:22;7.78;96.94
68977;SHT31;56029;52.568;13.588;2024-03-22T05:53:48;7.81;96.90
68977;SHT31;56029;52.568;13.588;2024-03-22T05:56:14;7.87;96.68
68977;SHT31;56029;52.568;13.588;2024-03-22T05:58:39;7.91;96.70
68977;SHT31;56029;52.568;13.588;2024-03-22T06:01:05;7.97;96.48
68977;SHT31;56029;52.568;13.588;2024-03-22T06:03:31;8.02;96.30
68977;SHT31;56029;52.568;13.588;2024-03-22T06:05:58;8.05;96.09
68977;SHT31;56029;52.568;13.588;2024-03-22T06:08:24;8.11;95.87
68977;SHT31;56029;52.568;13.588;2024-03-22T06:10:50;8.16;95.53
68977;SHT31;56029;52.568;13.588;2024-03-22T06:13:15;8.19;95.44
68977;SHT31;56029;52.568;13.588;2024-03-22T06:15:43;8.24;95.28
68977;SHT31;56029;52.568;13.588;2024-03-22T06:18:08;8.24;94.93
68977;SHT31;56029;52.568;13.588;2024-03-22T06:20:34;8.26;94.60
68977;SHT31;56029;52.568;13.588;2024-03-22T06:23:00;8.30;94.72
68977;SHT31;56029;52.568;13.588;2024-03-22T06:25:25;8.29;94.72
68977;SHT31;56029;52.568;13.588;2024-03-22T06:27:51;8.36;94.46
68977;SHT31;56029;52.568;13.588;2024-03-22T06:30:17;8.35;94.48
68977;SHT31;56029;52.568;13.588;2024-03-22T06:32:42;8.39;94.59
68977;SHT31;56029;52.568;13.588;2024-03-22T06:35:08;8.40;94.37
68977;SHT31;56029;52.568;13.588;2024-03-22T06:37:33;8.35;94.39
68977;SHT31;56029;52.568;13.588;2024-03-22T06:39:59;8.42;94.18
68977;SHT31;56029;52.568;13.588;2024-03-22T06:42:24;8.39;94.12
68977;SHT31;56029;52.568;13.588;2024-03-22T06:44:50;8.45;94.13
68977;SHT31;56029;52.568;13.588;2024-03-22T06:47:16;8.45;94.12
68977;SHT31;56029;52.568;13.588;2024-03-22T06:49:42;8.52;93.96
68977;SHT31;56029;52.568;13.588;2024-03-22T06:52:07;8.53;93.79
68977;SHT31;56029;52.568;13.588;2024-03-22T06:54:33;8.53;93.59
68977;SHT31;56029;52.568;13.588;2024-03-22T06:56:58;8.57;93.28
68977;SHT31;56029;52.568;13.588;2024-03-22T06:59:24;8.61;93.64
68977;SHT31;56029;52.568;13.588;2024-03-22T07:01:49;8.69;93.61
68977;SHT31;56029;52.568;13.588;2024-03-22T07:04:15;8.73;93.37
68977;SHT31;56029;52.568;13.588;2024-03-22T07:06:41;8.81;92.93
68977;SHT31;56029;52.568;13.588;2024-03-22T07:09:06;8.83;92.88
68977;SHT31;56029;52.568;13.588;2024-03-22T07:11:32;8.92;93.05
68977;SHT31;56029;52.568;13.588;2024-03-22T07:13:57;8.96;92.49
68977;SHT31;56029;52.568;13.588;2024-03-22T07:16:23;9.00;92.44
68977;SHT31;56029;52.568;13.588;2024-03-22T07:18:49;9.12;92.47
68977;SHT31;56029;52.568;13.588;2024-03-22T07:21:14;9.17;91.95
68977;SHT31;56029;52.568;13.588;2024-03-22T07:23:40;9.24;91.97
68977;SHT31;56029;52.568;13.588;2024-03-22T07:26:05;9.29;92.47
68977;SHT31;56029;52.568;13.588;2024-03-22T07:28:31;9.29;92.09
68977;SHT31;56029;52.568;13.588;2024-03-22T07:30:57;9.38;91.82
68977;SHT31;56029;52.568;13.588;2024-03-22T07:33:22;9.36;91.53
68977;SHT31;56029;52.568;13.588;2024-03-22T07:35:48;9.36;91.39
68977;SHT31;56029;52.568;13.588;2024-03-22T07:38:13;9.39;91.69
68977;SHT31;56029;52.568;13.588;2024-03-22T07:40:39;9.34;92.63
68977;SHT31;56029;52.568;13.588;2024-03-22T07:43:05;9.34;92.61
68977;SHT31;56029;52.568;13.588;2024-03-22T07:45:30;9.29;92.78
68977;SHT31;56029;52.568;13.588;2024-03-22T07:47:56;9.29;92.74
68977;SHT31;56029;52.568;13.588;2024-03-22T07:50:21;9.29;93.08
68977;SHT31;56029;52.568;13.588;2024-03-22T07:52:47;9.29;94.09
68977;SHT31;56029;52.568;13.588;2024-03-22T07:55:12;9.36;94.16
68977;SHT31;56029;52.568;13.588;2024-03-22T07:57:38;9.40;94.24
68977;SHT31;56029;52.568;13.588;2024-03-22T08:00:04;9.52;93.37
68977;SHT31;56029;52.568;13.588;2024-03-22T08:02:30;9.52;93.32
68977;SHT31;56029;52.568;13.588;2024-03-22T08:04:55;9.59;93.25
68977;SHT31;56029;52.568;13.588;2024-03-22T08:07:21;9.70;92.56
68977;SHT31;56029;52.568;13.588;2024-03-22T08:09:47;9.70;92.51
68977;SHT31;56029;52.568;13.588;2024-03-22T08:12:12;9.76;92.83
68977;SHT31;56029;52.568;13.588;2024-03-22T08:14:38;9.76;92.46
68977;SHT31;56029;52.568;13.588;2024-03-22T08:17:04;9.79;91.67
68977;SHT31;56029;52.568;13.588;2024-03-22T08:19:29;9.82;91.78
68977;SHT31;56029;52.568;13.588;2024-03-22T08:21:55;9.83;91.92
68977;SHT31;56029;52.568;13.588;2024-03-22T08:24:20;9.85;92.22
68977;SHT31;56029;52.568;13.588;2024-03-22T08:26:46;9.89;92.13
68977;SHT31;56029;52.568;13.588;2024-03-22T08:29:13;9.93;91.48
68977;SHT31;56029;52.568;13.588;2024-03-22T08:31:38;10.06;91.50
68977;SHT31;56029;52.568;13.588;2024-03-22T08:34:04;10.17;91.24
68977;SHT31;56029;52.568;13.588;2024-03-22T08:36:29;10.20;91.93
68977;SHT31;56029;52.568;13.588;2024-03-22T08:38:55;10.24;90.60
68977;SHT31;56029;52.568;13.588;2024-03-22T08:41:21;10.27;90.91
68977;SHT31;56029;52.568;13.588;2024-03-22T08:43:46;10.28;90.60
68977;SHT31;56029;52.568;13.588;2024-03-22T08:46:12;10.25;90.53
68977;SHT31;56029;52.568;13.588;2024-03-22T08:48:37;10.28;90.31
68977;SHT31;56029;52.568;13.588;2024-03-22T08:51:03;10.30;89.89
68977;SHT31;56029;52.568;13.588;2024-03-22T08:53:28;10.38;90.23
68977;SHT31;56029;52.568;13.588;2024-03-22T08:55:54;10.42;89.91
68977;SHT31;56029;52.568;13.588;2024-03-22T08:58:20;10.49;90.06
68977;SHT31;56029;52.568;13.588;2024-03-22T09:00:45;10.56;89.93
68977;SHT31;56029;52.568;13.588;2024-03-22T09:03:11;10.61;89.78
68977;SHT31;56029;52.568;13.588;2024-03-22T09:05:37;10.62;89.59
68977;SHT31;56029;52.568;13.588;2024-03-22T09:08:03;10.79;88.85
68977;SHT31;56029;52.568;13.588;2024-03-22T09:10:29;10.82;89.02
68977;SHT31;56029;52.568;13.588;2024-03-22T09:12:55;10.82;88.84
68977;SHT31;56029;52.568;13.588;2024-03-22T09:15:21;10.96;88.91
68977;SHT31;56029;52.568;13.588;2024-03-22T09:17:47;10.97;88.39
68977;SHT31;56029;52.568;13.588;2024-03-22T09:20:13;11.03;88.31
68977;SHT31;56029;52.568;13.588;2024-03-22T09:22:38;11.17;88.62
68977;SHT31;56029;52.568;13.588;2024-03-22T09:25:05;11.28;88.46
68977;SHT31;56029;52.568;13.588;2024-03-22T09:27:30;11.43;88.20
68977;SHT31;56029;52.568;13.588;2024-03-22T09:29:57;11.51;87.38
68977;SHT31;56029;52.568;13.588;2024-03-22T09:32:22;11.55;87.16
68977;SHT31;56029;52.568;13.588;2024-03-22T09:34:49;11.62;86.40
68977;SHT31;56029;52.568;13.588;2024-03-22T09:37:14;11.68;86.69
68977;SHT31;56029;52.568;13.588;2024-03-22T09:39:40;11.88;87.25
68977;SHT31;56029;52.568;13.588;2024-03-22T09:42:06;11.98;86.41
68977;SHT31;56029;52.568;13.588;2024-03-22T09:44:32;12.13;85.48
68977;SHT31;56029;52.568;13.588;2024-03-22T09:46:59;12.18;85.65
68977;SHT31;56029;52.568;13.588;2024-03-22T09:49:25;12.22;84.97
68977;SHT31;56029;52.568;13.588;2024-03-22T09:51:51;12.32;85.53
68977;SHT31;56029;52.568;13.588;2024-03-22T09:54:17;12.29;85.37
68977;SHT31;56029;52.568;13.588;2024-03-22T09:56:43;12.09;83.64
68977;SHT31;56029;52.568;13.588;2024-03-22T09:59:09;12.18;84.89
68977;SHT31;56029;52.568;13.588;2024-03-22T10:01:35;12.13;84.36
68977;SHT31;56029;52.568;13.588;2024-03-22T10:04:01;12.12;84.49
68977;SHT31;56029;52.568;13.588;2024-03-22T10:06:26;12.18;84.93
68977;SHT31;56029;52.568;13.588;2024-03-22T10:08:52;12.26;84.93
68977;SHT31;56029;52.568;13.588;2024-03-22T10:11:17;12.16;84.93
68977;SHT31;56029;52.568;13.588;2024-03-22T10:13:43;12.15;84.89
68977;SHT31;56029;52.568;13.588;2024-03-22T10:16:09;12.18;85.34
68977;SHT31;56029;52.568;13.588;2024-03-22T10:18:35;12.15;85.08
68977;SHT31;56029;52.568;13.588;2024-03-22T10:21:01;12.09;84.18
68977;SHT31;56029;52.568;13.588;2024-03-22T10:23:28;12.09;84.67
68977;SHT31;56029;52.568;13.588;2024-03-22T10:25:56;12.15;84.65
68977;SHT31;56029;52.568;13.588;2024-03-22T10:28:22;12.28;85.11
68977;SHT31;56029;52.568;13.588;2024-03-22T10:30:50;12.49;84.36
68977;SHT31;56029;52.568;13.588;2024-03-22T10:33:18;12.51;83.80
68977;SHT31;56029;52.568;13.588;2024-03-22T10:35:44;12.56;83.67
68977;SHT31;56029;52.568;13.588;2024-03-22T10:38:12;12.51;83.23
68977;SHT31;56029;52.568;13.588;2024-03-22T10:40:38;12.71;83.68
68977;SHT31;56029;52.568;13.588;2024-03-22T10:43:04;12.87;82.28
68977;SHT31;56029;52.568;13.588;2024-03-22T10:45:31;12.95;82.02
68977;SHT31;56029;52.568;13.588;2024-03-22T10:47:57;12.91;81.63
68977;SHT31;56029;52.568;13.588;2024-03-22T10:50:23;12.94;81.80
68977;SHT31;56029;52.568;13.588;2024-03-22T10:52:59;13.07;82.06
68977;SHT31;56029;52.568;13.588;2024-03-22T10:55:37;13.16;81.59
68977;SHT31;56029;52.568;13.588;2024-03-22T10:58:04;13.30;81.01
68977;SHT31;56029;52.568;13.588;2024-03-22T11:00:32;13.36;81.32
68977;SHT31;56029;52.568;13.588;2024-03-22T11:02:58;13.40;80.85
68977;SHT31;56029;52.568;13.588;2024-03-22T11:05:23;13.43;81.15
68977;SHT31;56029;52.568;13.588;2024-03-22T11:08:05;13.28;80.53
68977;SHT31;56029;52.568;13.588;2024-03-22T11:10:34;13.29;80.62
68977;SHT31;56029;52.568;13.588;2024-03-22T11:13:04;13.26;81.40
68977;SHT31;56029;52.568;13.588;2024-03-22T11:15:30;13.18;81.42
68977;SHT31;56029;52.568;13.588;2024-03-22T11:17:57;13.07;80.68
68977;SHT31;56029;52.568;13.588;2024-03-22T11:20:23;13.20;80.48
68977;SHT31;56029;52.568;13.588;2024-03-22T11:22:49;13.22;81.13
68977;SHT31;56029;52.568;13.588;2024-03-22T11:25:14;13.34;81.87
68977;SHT31;56029;52.568;13.588;2024-03-22T11:27:40;13.19;80.95
68977;SHT31;56029;52.568;13.588;2024-03-22T11:30:06;13.09;81.70
68977;SHT31;56029;52.568;13.588;2024-03-22T11:32:33;12.98;81.98
68977;SHT31;56029;52.568;13.588;2024-03-22T11:34:59;12.92;81.59
68977;SHT31;56029;52.568;13.588;2024-03-22T11:37:25;12.81;82.14
68977;SHT31;56029;52.568;13.588;2024-03-22T11:39:50;12.71;82.77
68977;SHT31;56029;52.568;13.588;2024-03-22T11:42:16;12.65;82.49
68977;SHT31;56029;52.568;13.588;2024-03-22T11:44:42;12.65;82.77
68977;SHT31;56029;52.568;13.588;2024-03-22T11:47:08;12.68;82.76
68977;SHT31;56029;52.568;13.588;2024-03-22T11:49:34;12.70;85.03
68977;SHT31;56029;52.568;13.588;2024-03-22T11:52:00;12.61;85.12
68977;SHT31;56029;52.568;13.588;2024-03-22T11:54:26;12.60;85.12
68977;SHT31;56029;52.568;13.588;2024-03-22T11:56:55;12.54;85.13
68977;SHT31;56029;52.568;13.588;2024-03-22T11:59:21;12.39;86.66
68977;SHT31;56029;52.568;13.588;2024-03-22T12:01:47;12.34;86.86
68977;SHT31;56029;52.568;13.588;2024-03-22T12:04:12;12.28;87.11
68977;SHT31;56029;52.568;13.588;2024-03-22T12:06:41;12.32;87.06
68977;SHT31;56029;52.568;13.588;2024-03-22T12:09:06;12.39;86.80
68977;SHT31;56029;52.568;13.588;2024-03-22T12:11:32;12.41;87.25
68977;SHT31;56029;52.568;13.588;2024-03-22T12:13:58;12.36;87.96
68977;SHT31;56029;52.568;13.588;2024-03-22T12:16:23;12.36;88.42
68977;SHT31;56029;52.568;13.588;2024-03-22T12:18:49;12.29;88.25
68977;SHT31;56029;52.568;13.588;2024-03-22T12:21:14;12.26;89.41
68977;SHT31;56029;52.568;13.588;2024-03-22T12:23:40;12.19;89.42
68977;SHT31;56029;52.568;13.588;2024-03-22T12:26:06;12.11;89.84
68977;SHT31;56029;52.568;13.588;2024-03-22T12:28:32;12.03;90.63
68977;SHT31;56029;52.568;13.588;2024-03-22T12:30:57;11.92;91.06
68977;SHT31;56029;52.568;13.588;2024-03-22T12:33:23;11.89;91.74
68977;SHT31;56029;52.568;13.588;2024-03-22T12:35:49;11.77;92.53
68977;SHT31;56029;52.568;13.588;2024-03-22T12:38:14;11.71;92.42
68977;SHT31;56029;52.568;13.588;2024-03-22T12:40:40;11.68;93.21
68977;SHT31;56029;52.568;13.588;2024-03-22T12:43:06;11.64;93.30
68977;SHT31;56029;52.568;13.588;2024-03-22T12:45:32;11.54;94.47
68977;SHT31;56029;52.568;13.588;2024-03-22T12:47:57;11.57;94.54
68977;SHT31;56029;52.568;13.588;2024-03-22T12:50:23;11.55;94.68
68977;SHT31;56029;52.568;13.588;2024-03-22T12:52:48;11.51;95.32
68977;SHT31;56029;52.568;13.588;2024-03-22T12:55:14;11.50;95.00
68977;SHT31;56029;52.568;13.588;2024-03-22T12:57:40;11.53;95.01
68977;SHT31;56029;52.568;13.588;2024-03-22T13:00:07;11.54;96.24
68977;SHT31;56029;52.568;13.588;2024-03-22T13:02:32;11.54;95.93
68977;SHT31;56029;52.568;13.588;2024-03-22T13:04:58;11.53;96.45
68977;SHT31;56029;52.568;13.588;2024-03-22T13:07:23;11.45;96.31
68977;SHT31;56029;52.568;13.588;2024-03-22T13:09:50;11.45;96.32
68977;SHT31;56029;52.568;13.588;2024-03-22T13:12:16;11.47;96.58
68977;SHT31;56029;52.568;13.588;2024-03-22T13:14:41;11.43;96.76
68977;SHT31;56029;52.568;13.588;2024-03-22T13:17:07;11.35;96.71
68977;SHT31;56029;52.568;13.588;2024-03-22T13:19:32;11.35;97.12
68977;SHT31;56029;52.568;13.588;2024-03-22T13:21:58;11.28;97.52
68977;SHT31;56029;52.568;13.588;2024-03-22T13:24:24;11.22;97.25
68977;SHT31;56029;52.568;13.588;2024-03-22T13:26:49;11.33;97.42
68977;SHT31;56029;52.568;13.588;2024-03-22T13:29:15;11.31;97.09
68977;SHT31;56029;52.568;13.588;2024-03-22T13:31:41;11.33;97.65
68977;SHT31;56029;52.568;13.588;2024-03-22T13:34:06;11.43;98.18
68977;SHT31;56029;52.568;13.588;2024-03-22T13:36:32;11.51;98.08
68977;SHT31;56029;52.568;13.588;2024-03-22T13:38:58;11.55;97.07
68977;SHT31;56029;52.568;13.588;2024-03-22T13:41:24;11.62;97.39
68977;SHT31;56029;52.568;13.588;2024-03-22T13:43:49;11.64;96.77
68977;SHT31;56029;52.568;13.588;2024-03-22T13:46:15;11.61;97.02
68977;SHT31;56029;52.568;13.588;2024-03-22T13:48:40;11.57;96.71
68977;SHT31;56029;52.568;13.588;2024-03-22T13:51:06;11.53;96.09
68977;SHT31;56029;52.568;13.588;2024-03-22T13:53:32;11.51;94.80
68977;SHT31;56029;52.568;13.588;2024-03-22T13:55:57;11.55;96.53
68977;SHT31;56029;52.568;13.588;2024-03-22T13:58:23;11.60;96.09
68977;SHT31;56029;52.568;13.588;2024-03-22T14:00:49;11.54;95.19
68977;SHT31;56029;52.568;13.588;2024-03-22T14:03:14;11.54;95.04
68977;SHT31;56029;52.568;13.588;2024-03-22T14:05:40;11.48;94.81
68977;SHT31;56029;52.568;13.588;2024-03-22T14:08:06;11.50;94.54
68977;SHT31;56029;52.568;13.588;2024-03-22T14:10:31;11.57;93.85
68977;SHT31;56029;52.568;13.588;2024-03-22T14:12:58;11.60;95.18
68977;SHT31;56029;52.568;13.588;2024-03-22T14:15:24;11.58;94.77
68977;SHT31;56029;52.568;13.588;2024-03-22T14:17:50;11.65;94.62
68977;SHT31;56029;52.568;13.588;2024-03-22T14:20:15;11.57;93.22
68977;SHT31;56029;52.568;13.588;2024-03-22T14:22:41;11.57;93.20
68977;SHT31;56029;52.568;13.588;2024-03-22T14:25:07;11.65;93.69
68977;SHT31;56029;52.568;13.588;2024-03-22T14:27:33;11.64;94.45
68977;SHT31;56029;52.568;13.588;2024-03-22T14:29:59;11.57;93.40
68977;SHT31;56029;52.568;13.588;2024-03-22T14:32:25;11.55;94.14
68977;SHT31;56029;52.568;13.588;2024-03-22T14:34:51;11.54;95.41
68977;SHT31;56029;52.568;13.588;2024-03-22T14:37:16;11.48;95.23
68977;SHT31;56029;52.568;13.588;2024-03-22T14:39:42;11.61;95.68
68977;SHT31;56029;52.568;13.588;2024-03-22T14:42:08;11.70;96.10
68977;SHT31;56029;52.568;13.588;2024-03-22T14:44:33;11.70;96.31
68977;SHT31;56029;52.568;13.588;2024-03-22T14:46:59;11.75;96.40
68977;SHT31;56029;52.568;13.588;2024-03-22T14:49:24;11.81;96.07
68977;SHT31;56029;52.568;13.588;2024-03-22T14:51:50;11.83;96.89
68977;SHT31;56029;52.568;13.588;2024-03-22T14:54:16;11.85;96.69
68977;SHT31;56029;52.568;13.588;2024-03-22T14:56:42;11.89;95.97
68977;SHT31;56029;52.568;13.588;2024-03-22T14:59:07;11.88;96.80
68977;SHT31;56029;52.568;13.588;2024-03-22T15:01:33;11.89;96.24
68977;SHT31;56029;52.568;13.588;2024-03-22T15:03:58;11.93;96.46
68977;SHT31;56029;52.568;13.588;2024-03-22T15:06:24;11.81;94.51
68977;SHT31;56029;52.568;13.588;2024-03-22T15:08:50;11.75;95.44
68977;SHT31;56029;52.568;13.588;2024-03-22T15:11:15;11.79;94.95
68977;SHT31;56029;52.568;13.588;2024-03-22T15:13:41;11.83;94.42
68977;SHT31;56029;52.568;13.588;2024-03-22T15:16:07;11.81;94.35